sensor_id;sensor_type;location;lat;lon;timestamp;P1;durP1;ratioP1;P2;durP2;ratioP2
30173;SDS011;16985;50.814;8.530;2023-04-06T00:02:09;13.43;;;6.22;;
30173;SDS011;16985;50.814;8.530;2023-04-06T00:04:35;10.23;;;6.05;;
30173;SDS011;16985;50.814;8.530;2023-04-06T00:07:00;10.73;;;5.53;;
30173;SDS011;16985;50.814;8.530;2023-04-06T00:09:26;7.97;;;5.35;;
30173;SDS011;16985;50.814;8.530;2023-04-06T00:11:52;10.27;;;5.72;;
30173;SDS011;16985;50.814;8.530;2023-04-06T00:14:18;8.20;;;5.60;;
30173;SDS011;16985;50.814;8.530;2023-04-06T00:16:44;9.25;;;6.15;;
30173;SDS011;16985;50.814;8.530;2023-04-06T00:19:10;12.18;;;5.53;;
30173;SDS011;16985;50.814;8.530;2023-04-06T00:21:35;8.63;;;5.45;;
30173;SDS011;16985;50.814;8.530;2023-04-06T00:24:01;7.47;;;5.45;;
30173;SDS011;16985;50.814;8.530;2023-04-06T00:26:28;7.80;;;5.40;;
30173;SDS011;16985;50.814;8.530;2023-04-06T00:28:55;7.75;;;5.72;;
30173;SDS011;16985;50.814;8.530;2023-04-06T00:31:21;17.20;;;6.07;;
30173;SDS011;16985;50.814;8.530;2023-04-06T00:33:47;6.60;;;5.53;;
30173;SDS011;16985;50.814;8.530;2023-04-06T00:36:13;10.38;;;5.40;;
30173;SDS011;16985;50.814;8.530;2023-04-06T00:38:39;7.35;;;4.97;;
30173;SDS011;16985;50.814;8.530;2023-04-06T00:41:05;14.23;;;5.65;;
30173;SDS011;16985;50.814;8.530;2023-04-06T00:43:31;7.38;;;5.45;;
30173;SDS011;16985;50.814;8.530;2023-04-06T00:45:57;10.05;;;5.38;;
30173;SDS011;16985;50.814;8.530;2023-04-06T00:48:23;8.75;;;5.10;;
30173;SDS011;16985;50.814;8.530;2023-04-06T00:50:49;10.15;;;5.13;;
30173;SDS011;16985;50.814;8.530;2023-04-06T00:53:15;11.63;;;6.53;;
30173;SDS011;16985;50.814;8.530;2023-04-06T00:55:41;7.18;;;5.30;;
30173;SDS011;16985;50.814;8.530;2023-04-06T00:58:07;7.07;;;5.03;;
30173;SDS011;16985;50.814;8.530;2023-04-06T01:00:42;9.20;;;5.70;;
30173;SDS011;16985;50.814;8.530;2023-04-06T01:03:13;8.18;;;5.03;;
30173;SDS011;16985;50.814;8.530;2023-04-06T01:05:41;7.20;;;5.53;;
30173;SDS011;16985;50.814;8.530;2023-04-06T01:08:15;7.78;;;5.28;;
30173;SDS011;16985;50.814;8.530;2023-04-06T01:10:41;11.15;;;5.35;;
30173;SDS011;16985;50.814;8.530;2023-04-06T01:13:20;9.27;;;5.10;;
30173;SDS011;16985;50.814;8.530;2023-04-06T01:15:51;9.23;;;5.57;;
30173;SDS011;16985;50.814;8.530;2023-04-06T01:18:27;15.05;;;5.50;;
30173;SDS011;16985;50.814;8.530;2023-04-06T01:21:10;9.30;;;5.90;;
30173;SDS011;16985;50.814;8.530;2023-04-06T01:23:44;8.95;;;5.78;;
30173;SDS011;16985;50.814;8.530;2023-04-06T01:28:39;9.10;;;5.10;;
30173;SDS011;16985;50.814;8.530;2023-04-06T01:31:22;12.13;;;5.75;;
30173;SDS011;16985;50.814;8.530;2023-04-06T01:33:50;9.43;;;5.47;;
30173;SDS011;16985;50.814;8.530;2023-04-06T01:36:20;7.40;;;5.32;;
30173;SDS011;16985;50.814;8.530;2023-04-06T01:38:52;12.40;;;5.35;;
30173;SDS011;16985;50.814;8.530;2023-04-06T01:41:22;10.25;;;6.30;;
30173;SDS011;16985;50.814;8.530;2023-04-06T01:43:51;10.07;;;6.13;;
30173;SDS011;16985;50.814;8.530;2023-04-06T01:46:21;8.02;;;5.47;;
30173;SDS011;16985;50.814;8.530;2023-04-06T01:48:46;13.90;;;7.72;;
30173;SDS011;16985;50.814;8.530;2023-04-06T01:51:18;7.60;;;5.22;;
30173;SDS011;16985;50.814;8.530;2023-04-06T01:53:50;7.10;;;5.22;;
30173;SDS011;16985;50.814;8.530;2023-04-06T01:56:18;9.35;;;5.38;;
30173;SDS011;16985;50.814;8.530;2023-04-06T01:58:53;9.63;;;5.15;;
30173;SDS011;16985;50.814;8.530;2023-04-06T02:01:19;8.82;;;6.30;;
30173;SDS011;16985;50.814;8.530;2023-04-06T02:03:53;8.93;;;5.35;;
30173;SDS011;16985;50.814;8.530;2023-04-06T02:06:19;8.63;;;5.88;;
30173;SDS011;16985;50.814;8.530;2023-04-06T02:08:45;9.02;;;5.85;;
30173;SDS011;16985;50.814;8.530;2023-04-06T02:11:12;7.20;;;5.03;;
30173;SDS011;16985;50.814;8.530;2023-04-06T02:13:43;9.95;;;5.65;;
30173;SDS011;16985;50.814;8.530;2023-04-06T02:16:10;11.05;;;5.70;;
30173;SDS011;16985;50.814;8.530;2023-04-06T02:18:36;9.30;;;5.88;;
30173;SDS011;16985;50.814;8.530;2023-04-06T02:21:01;7.60;;;5.55;;
30173;SDS011;16985;50.814;8.530;2023-04-06T02:23:27;8.68;;;6.10;;
30173;SDS011;16985;50.814;8.530;2023-04-06T02:25:55;7.72;;;5.15;;
30173;SDS011;16985;50.814;8.530;2023-04-06T02:28:21;7.22;;;5.03;;
30173;SDS011;16985;50.814;8.530;2023-04-06T02:30:47;10.40;;;5.20;;
30173;SDS011;16985;50.814;8.530;2023-04-06T02:33:13;14.13;;;5.75;;
30173;SDS011;16985;50.814;8.530;2023-04-06T02:35:44;13.60;;;6.00;;
30173;SDS011;16985;50.814;8.530;2023-04-06T02:38:10;7.43;;;5.10;;
30173;SDS011;16985;50.814;8.530;2023-04-06T02:40:36;11.65;;;5.70;;
30173;SDS011;16985;50.814;8.530;2023-04-06T02:43:13;9.48;;;5.68;;
30173;SDS011;16985;50.814;8.530;2023-04-06T02:45:40;13.15;;;5.68;;
30173;SDS011;16985;50.814;8.530;2023-04-06T02:48:06;8.90;;;5.55;;
30173;SDS011;16985;50.814;8.530;2023-04-06T02:50:32;14.13;;;5.15;;
30173;SDS011;16985;50.814;8.530;2023-04-06T02:53:02;10.52;;;5.72;;
30173;SDS011;16985;50.814;8.530;2023-04-06T02:55:27;8.18;;;5.50;;
30173;SDS011;16985;50.814;8.530;2023-04-06T02:57:53;7.70;;;6.10;;
30173;SDS011;16985;50.814;8.530;2023-04-06T03:00:24;7.85;;;5.45;;
30173;SDS011;16985;50.814;8.530;2023-04-06T03:02:50;9.18;;;5.78;;
30173;SDS011;16985;50.814;8.530;2023-04-06T03:05:17;11.05;;;6.60;;
30173;SDS011;16985;50.814;8.530;2023-04-06T03:07:44;11.30;;;7.85;;
30173;SDS011;16985;50.814;8.530;2023-04-06T03:10:21;11.60;;;6.75;;
30173;SDS011;16985;50.814;8.530;2023-04-06T03:12:49;10.88;;;6.93;;
30173;SDS011;16985;50.814;8.530;2023-04-06T03:15:35;14.07;;;7.30;;
30173;SDS011;16985;50.814;8.530;2023-04-06T03:18:10;13.55;;;6.78;;
30173;SDS011;16985;50.814;8.530;2023-04-06T03:20:41;13.45;;;6.55;;
30173;SDS011;16985;50.814;8.530;2023-04-06T03:23:08;9.52;;;6.40;;
30173;SDS011;16985;50.814;8.530;2023-04-06T03:25:38;14.13;;;6.57;;
30173;SDS011;16985;50.814;8.530;2023-04-06T03:28:05;9.10;;;5.95;;
30173;SDS011;16985;50.814;8.530;2023-04-06T03:30:36;9.55;;;5.95;;
30173;SDS011;16985;50.814;8.530;2023-04-06T03:33:03;7.38;;;5.68;;
30173;SDS011;16985;50.814;8.530;2023-04-06T03:35:33;7.40;;;5.82;;
30173;SDS011;16985;50.814;8.530;2023-04-06T03:37:59;10.30;;;6.45;;
30173;SDS011;16985;50.814;8.530;2023-04-06T03:40:25;15.40;;;6.45;;
30173;SDS011;16985;50.814;8.530;2023-04-06T03:42:51;9.77;;;6.55;;
30173;SDS011;16985;50.814;8.530;2023-04-06T03:45:17;14.10;;;7.20;;
30173;SDS011;16985;50.814;8.530;2023-04-06T03:47:46;12.82;;;6.75;;
30173;SDS011;16985;50.814;8.530;2023-04-06T03:50:13;9.23;;;6.10;;
30173;SDS011;16985;50.814;8.530;2023-04-06T03:52:38;9.18;;;5.93;;
30173;SDS011;16985;50.814;8.530;2023-04-06T03:55:05;14.90;;;6.60;;
30173;SDS011;16985;50.814;8.530;2023-04-06T03:57:33;10.27;;;7.47;;
30173;SDS011;16985;50.814;8.530;2023-04-06T03:59:58;11.25;;;6.22;;
30173;SDS011;16985;50.814;8.530;2023-04-06T04:02:25;12.25;;;6.80;;
30173;SDS011;16985;50.814;8.530;2023-04-06T04:04:51;12.93;;;6.63;;
30173;SDS011;16985;50.814;8.530;2023-04-06T04:07:17;14.82;;;6.28;;
30173;SDS011;16985;50.814;8.530;2023-04-06T04:09:42;12.00;;;6.88;;
30173;SDS011;16985;50.814;8.530;2023-04-06T04:12:09;10.20;;;6.45;;
30173;SDS011;16985;50.814;8.530;2023-04-06T04:14:35;13.45;;;6.43;;
30173;SDS011;16985;50.814;8.530;2023-04-06T04:17:01;14.45;;;7.78;;
30173;SDS011;16985;50.814;8.530;2023-04-06T04:19:27;9.30;;;6.38;;
30173;SDS011;16985;50.814;8.530;2023-04-06T04:21:54;11.98;;;6.93;;
30173;SDS011;16985;50.814;8.530;2023-04-06T04:24:28;13.65;;;6.75;;
30173;SDS011;16985;50.814;8.530;2023-04-06T04:26:54;13.30;;;7.35;;
30173;SDS011;16985;50.814;8.530;2023-04-06T04:29:21;9.43;;;6.65;;
30173;SDS011;16985;50.814;8.530;2023-04-06T04:31:49;10.60;;;6.70;;
30173;SDS011;16985;50.814;8.530;2023-04-06T04:34:17;12.32;;;6.80;;
30173;SDS011;16985;50.814;8.530;2023-04-06T04:36:45;9.70;;;6.68;;
30173;SDS011;16985;50.814;8.530;2023-04-06T04:39:18;10.52;;;6.82;;
30173;SDS011;16985;50.814;8.530;2023-04-06T04:41:50;11.10;;;7.10;;
30173;SDS011;16985;50.814;8.530;2023-04-06T04:44:16;11.52;;;7.80;;
30173;SDS011;16985;50.814;8.530;2023-04-06T04:46:42;13.15;;;7.30;;
30173;SDS011;16985;50.814;8.530;2023-04-06T04:49:09;10.13;;;7.40;;
30173;SDS011;16985;50.814;8.530;2023-04-06T04:51:35;10.27;;;6.43;;
30173;SDS011;16985;50.814;8.530;2023-04-06T04:54:14;13.07;;;7.55;;
30173;SDS011;16985;50.814;8.530;2023-04-06T04:56:41;11.27;;;7.30;;
30173;SDS011;16985;50.814;8.530;2023-04-06T04:59:21;15.85;;;6.60;;
30173;SDS011;16985;50.814;8.530;2023-04-06T05:01:54;11.38;;;7.85;;
30173;SDS011;16985;50.814;8.530;2023-04-06T05:04:22;10.80;;;6.90;;
30173;SDS011;16985;50.814;8.530;2023-04-06T05:06:50;12.93;;;8.07;;
30173;SDS011;16985;50.814;8.530;2023-04-06T05:09:17;10.00;;;7.40;;
30173;SDS011;16985;50.814;8.530;2023-04-06T05:11:43;9.77;;;7.25;;
30173;SDS011;16985;50.814;8.530;2023-04-06T05:14:09;10.50;;;7.38;;
30173;SDS011;16985;50.814;8.530;2023-04-06T05:16:36;13.63;;;6.78;;
30173;SDS011;16985;50.814;8.530;2023-04-06T05:19:02;10.82;;;7.43;;
30173;SDS011;16985;50.814;8.530;2023-04-06T05:21:36;16.77;;;8.10;;
30173;SDS011;16985;50.814;8.530;2023-04-06T05:24:05;11.07;;;7.38;;
30173;SDS011;16985;50.814;8.530;2023-04-06T05:26:32;14.80;;;7.93;;
30173;SDS011;16985;50.814;8.530;2023-04-06T05:29:04;13.40;;;8.18;;
30173;SDS011;16985;50.814;8.530;2023-04-06T05:31:34;13.88;;;7.43;;
30173;SDS011;16985;50.814;8.530;2023-04-06T05:34:00;11.65;;;7.18;;
30173;SDS011;16985;50.814;8.530;2023-04-06T05:36:30;8.18;;;6.80;;
30173;SDS011;16985;50.814;8.530;2023-04-06T05:38:58;13.65;;;7.38;;
30173;SDS011;16985;50.814;8.530;2023-04-06T05:41:33;9.90;;;6.70;;
30173;SDS011;16985;50.814;8.530;2023-04-06T05:44:00;16.40;;;7.53;;
30173;SDS011;16985;50.814;8.530;2023-04-06T05:46:26;9.40;;;7.20;;
30173;SDS011;16985;50.814;8.530;2023-04-06T05:48:54;13.18;;;8.52;;
30173;SDS011;16985;50.814;8.530;2023-04-06T05:51:24;9.65;;;7.22;;
30173;SDS011;16985;50.814;8.530;2023-04-06T05:53:50;9.57;;;6.38;;
30173;SDS011;16985;50.814;8.530;2023-04-06T05:56:16;10.18;;;6.45;;
30173;SDS011;16985;50.814;8.530;2023-04-06T05:58:42;14.48;;;7.25;;
30173;SDS011;16985;50.814;8.530;2023-04-06T06:01:11;11.95;;;6.43;;
30173;SDS011;16985;50.814;8.530;2023-04-06T06:03:41;9.05;;;6.05;;
30173;SDS011;16985;50.814;8.530;2023-04-06T06:06:07;11.15;;;7.60;;
30173;SDS011;16985;50.814;8.530;2023-04-06T06:08:43;10.77;;;6.68;;
30173;SDS011;16985;50.814;8.530;2023-04-06T06:11:13;11.48;;;7.30;;
30173;SDS011;16985;50.814;8.530;2023-04-06T06:13:39;11.93;;;7.63;;
30173;SDS011;16985;50.814;8.530;2023-04-06T06:16:05;15.93;;;7.32;;
30173;SDS011;16985;50.814;8.530;2023-04-06T06:18:33;13.80;;;8.23;;
30173;SDS011;16985;50.814;8.530;2023-04-06T06:20:59;9.07;;;6.82;;
30173;SDS011;16985;50.814;8.530;2023-04-06T06:23:25;8.68;;;7.05;;
30173;SDS011;16985;50.814;8.530;2023-04-06T06:25:52;12.50;;;6.78;;
30173;SDS011;16985;50.814;8.530;2023-04-06T06:28:20;9.20;;;6.50;;
30173;SDS011;16985;50.814;8.530;2023-04-06T06:30:46;9.48;;;7.28;;
30173;SDS011;16985;50.814;8.530;2023-04-06T06:33:16;10.27;;;7.57;;
30173;SDS011;16985;50.814;8.530;2023-04-06T06:35:42;10.82;;;7.45;;
30173;SDS011;16985;50.814;8.530;2023-04-06T06:38:08;11.77;;;8.10;;
30173;SDS011;16985;50.814;8.530;2023-04-06T06:40:34;13.00;;;7.55;;
30173;SDS011;16985;50.814;8.530;2023-04-06T06:42:59;13.57;;;8.07;;
30173;SDS011;16985;50.814;8.530;2023-04-06T06:45:36;12.27;;;7.97;;
30173;SDS011;16985;50.814;8.530;2023-04-06T06:48:02;18.15;;;8.40;;
30173;SDS011;16985;50.814;8.530;2023-04-06T06:50:28;10.45;;;7.43;;
30173;SDS011;16985;50.814;8.530;2023-04-06T06:52:54;12.73;;;8.75;;
30173;SDS011;16985;50.814;8.530;2023-04-06T06:55:19;13.52;;;9.10;;
30173;SDS011;16985;50.814;8.530;2023-04-06T06:57:45;11.07;;;8.52;;
30173;SDS011;16985;50.814;8.530;2023-04-06T07:00:12;11.93;;;7.93;;
30173;SDS011;16985;50.814;8.530;2023-04-06T07:02:40;10.80;;;7.85;;
30173;SDS011;16985;50.814;8.530;2023-04-06T07:05:06;16.42;;;10.55;;
30173;SDS011;16985;50.814;8.530;2023-04-06T07:07:33;16.80;;;8.70;;
30173;SDS011;16985;50.814;8.530;2023-04-06T07:09:59;15.07;;;9.32;;
30173;SDS011;16985;50.814;8.530;2023-04-06T07:12:25;14.05;;;8.77;;
30173;SDS011;16985;50.814;8.530;2023-04-06T07:14:51;16.83;;;9.75;;
30173;SDS011;16985;50.814;8.530;2023-04-06T07:17:18;16.58;;;8.98;;
30173;SDS011;16985;50.814;8.530;2023-04-06T07:19:44;15.05;;;8.25;;
30173;SDS011;16985;50.814;8.530;2023-04-06T07:22:10;14.63;;;8.48;;
30173;SDS011;16985;50.814;8.530;2023-04-06T07:24:37;14.23;;;9.45;;
30173;SDS011;16985;50.814;8.530;2023-04-06T07:27:03;17.20;;;9.38;;
30173;SDS011;16985;50.814;8.530;2023-04-06T07:29:29;16.10;;;9.40;;
30173;SDS011;16985;50.814;8.530;2023-04-06T07:31:55;20.35;;;9.93;;
30173;SDS011;16985;50.814;8.530;2023-04-06T07:34:21;15.45;;;9.35;;
30173;SDS011;16985;50.814;8.530;2023-04-06T07:36:51;13.82;;;8.95;;
30173;SDS011;16985;50.814;8.530;2023-04-06T07:39:19;23.90;;;10.13;;
30173;SDS011;16985;50.814;8.530;2023-04-06T07:41:45;16.50;;;10.90;;
30173;SDS011;16985;50.814;8.530;2023-04-06T07:44:11;15.50;;;9.60;;
30173;SDS011;16985;50.814;8.530;2023-04-06T07:46:37;15.02;;;10.60;;
30173;SDS011;16985;50.814;8.530;2023-04-06T07:49:03;19.98;;;10.43;;
30173;SDS011;16985;50.814;8.530;2023-04-06T07:51:32;16.50;;;9.95;;
30173;SDS011;16985;50.814;8.530;2023-04-06T07:53:57;18.83;;;10.23;;
30173;SDS011;16985;50.814;8.530;2023-04-06T07:56:23;15.65;;;10.25;;
30173;SDS011;16985;50.814;8.530;2023-04-06T07:58:50;16.83;;;9.18;;
30173;SDS011;16985;50.814;8.530;2023-04-06T08:01:15;14.95;;;8.77;;
30173;SDS011;16985;50.814;8.530;2023-04-06T08:03:41;16.00;;;9.30;;
30173;SDS011;16985;50.814;8.530;2023-04-06T08:06:07;17.13;;;9.20;;
30173;SDS011;16985;50.814;8.530;2023-04-06T08:08:33;13.70;;;8.88;;
30173;SDS011;16985;50.814;8.530;2023-04-06T08:10:59;16.75;;;9.02;;
30173;SDS011;16985;50.814;8.530;2023-04-06T08:13:24;11.02;;;7.97;;
30173;SDS011;16985;50.814;8.530;2023-04-06T08:15:50;16.48;;;8.20;;
30173;SDS011;16985;50.814;8.530;2023-04-06T08:18:16;14.80;;;9.10;;
30173;SDS011;16985;50.814;8.530;2023-04-06T08:20:42;20.20;;;10.02;;
30173;SDS011;16985;50.814;8.530;2023-04-06T08:23:08;14.15;;;8.13;;
30173;SDS011;16985;50.814;8.530;2023-04-06T08:25:35;12.52;;;8.57;;
30173;SDS011;16985;50.814;8.530;2023-04-06T08:28:01;15.13;;;8.10;;
30173;SDS011;16985;50.814;8.530;2023-04-06T08:30:28;14.13;;;8.45;;
30173;SDS011;16985;50.814;8.530;2023-04-06T08:32:55;13.38;;;7.97;;
30173;SDS011;16985;50.814;8.530;2023-04-06T08:35:20;11.43;;;8.27;;
30173;SDS011;16985;50.814;8.530;2023-04-06T08:37:47;15.13;;;8.48;;
30173;SDS011;16985;50.814;8.530;2023-04-06T08:40:16;14.10;;;7.38;;
30173;SDS011;16985;50.814;8.530;2023-04-06T08:42:49;10.63;;;7.63;;
30173;SDS011;16985;50.814;8.530;2023-04-06T08:45:21;12.05;;;7.50;;
30173;SDS011;16985;50.814;8.530;2023-04-06T08:47:48;14.55;;;7.88;;
30173;SDS011;16985;50.814;8.530;2023-04-06T08:50:17;14.98;;;8.55;;
30173;SDS011;16985;50.814;8.530;2023-04-06T08:52:44;15.88;;;7.63;;
30173;SDS011;16985;50.814;8.530;2023-04-06T08:55:13;16.92;;;7.15;;
30173;SDS011;16985;50.814;8.530;2023-04-06T08:57:40;11.15;;;7.82;;
30173;SDS011;16985;50.814;8.530;2023-04-06T09:00:09;19.40;;;8.38;;
30173;SDS011;16985;50.814;8.530;2023-04-06T09:02:38;15.18;;;8.07;;
30173;SDS011;16985;50.814;8.530;2023-04-06T09:05:08;10.55;;;7.25;;
30173;SDS011;16985;50.814;8.530;2023-04-06T09:07:37;14.70;;;7.72;;
30173;SDS011;16985;50.814;8.530;2023-04-06T09:10:20;17.58;;;7.97;;
30173;SDS011;16985;50.814;8.530;2023-04-06T09:12:48;12.98;;;7.28;;
30173;SDS011;16985;50.814;8.530;2023-04-06T09:15:30;12.90;;;7.45;;
30173;SDS011;16985;50.814;8.530;2023-04-06T09:17:55;14.70;;;7.60;;
30173;SDS011;16985;50.814;8.530;2023-04-06T09:20:22;13.70;;;7.57;;
30173;SDS011;16985;50.814;8.530;2023-04-06T09:22:56;12.52;;;7.70;;
30173;SDS011;16985;50.814;8.530;2023-04-06T09:25:24;26.45;;;8.23;;
30173;SDS011;16985;50.814;8.530;2023-04-06T09:28:03;14.00;;;8.20;;
30173;SDS011;16985;50.814;8.530;2023-04-06T09:30:31;13.18;;;6.97;;
30173;SDS011;16985;50.814;8.530;2023-04-06T09:33:00;15.43;;;8.63;;
30173;SDS011;16985;50.814;8.530;2023-04-06T09:37:54;15.85;;;7.63;;
30173;SDS011;16985;50.814;8.530;2023-04-06T09:40:31;17.60;;;7.78;;
30173;SDS011;16985;50.814;8.530;2023-04-06T09:42:57;16.23;;;8.57;;
30173;SDS011;16985;50.814;8.530;2023-04-06T09:45:24;16.88;;;7.75;;
30173;SDS011;16985;50.814;8.530;2023-04-06T09:47:52;14.77;;;7.95;;
30173;SDS011;16985;50.814;8.530;2023-04-06T09:50:21;21.15;;;8.95;;
30173;SDS011;16985;50.814;8.530;2023-04-06T09:52:49;19.48;;;8.05;;
30173;SDS011;16985;50.814;8.530;2023-04-06T09:55:37;13.57;;;8.75;;
30173;SDS011;16985;50.814;8.530;2023-04-06T09:58:12;11.95;;;7.28;;
30173;SDS011;16985;50.814;8.530;2023-04-06T10:01:02;12.93;;;7.18;;
30173;SDS011;16985;50.814;8.530;2023-04-06T10:03:45;12.80;;;7.28;;
30173;SDS011;16985;50.814;8.530;2023-04-06T10:06:37;12.82;;;7.70;;
30173;SDS011;16985;50.814;8.530;2023-04-06T10:09:04;12.32;;;7.45;;
30173;SDS011;16985;50.814;8.530;2023-04-06T10:11:33;14.75;;;8.50;;
30173;SDS011;16985;50.814;8.530;2023-04-06T10:14:02;13.70;;;7.43;;
30173;SDS011;16985;50.814;8.530;2023-04-06T10:16:40;14.45;;;8.45;;
30173;SDS011;16985;50.814;8.530;2023-04-06T10:19:18;17.80;;;8.98;;
30173;SDS011;16985;50.814;8.530;2023-04-06T10:21:58;17.40;;;9.00;;
30173;SDS011;16985;50.814;8.530;2023-04-06T10:27:00;21.13;;;10.88;;
30173;SDS011;16985;50.814;8.530;2023-04-06T10:29:28;16.40;;;9.45;;
30173;SDS011;16985;50.814;8.530;2023-04-06T10:32:08;16.95;;;9.05;;
30173;SDS011;16985;50.814;8.530;2023-04-06T10:34:37;15.80;;;8.23;;
30173;SDS011;16985;50.814;8.530;2023-04-06T10:37:21;18.48;;;8.73;;
30173;SDS011;16985;50.814;8.530;2023-04-06T10:43:40;19.10;;;8.60;;
30173;SDS011;16985;50.814;8.530;2023-04-06T10:46:51;17.25;;;9.38;;
30173;SDS011;16985;50.814;8.530;2023-04-06T10:49:29;16.42;;;8.32;;
30173;SDS011;16985;50.814;8.530;2023-04-06T10:52:28;19.13;;;8.85;;
30173;SDS011;16985;50.814;8.530;2023-04-06T10:55:57;18.35;;;9.30;;
30173;SDS011;16985;50.814;8.530;2023-04-06T10:58:27;15.57;;;8.07;;
30173;SDS011;16985;50.814;8.530;2023-04-06T11:00:53;19.48;;;8.52;;
30173;SDS011;16985;50.814;8.530;2023-04-06T11:03:20;13.88;;;7.68;;
30173;SDS011;16985;50.814;8.530;2023-04-06T11:05:47;15.77;;;8.45;;
30173;SDS011;16985;50.814;8.530;2023-04-06T11:11:08;14.00;;;7.78;;
30173;SDS011;16985;50.814;8.530;2023-04-06T11:13:44;13.98;;;7.68;;
30173;SDS011;16985;50.814;8.530;2023-04-06T11:16:21;15.13;;;7.95;;
30173;SDS011;16985;50.814;8.530;2023-04-06T11:18:56;15.75;;;7.15;;
30173;SDS011;16985;50.814;8.530;2023-04-06T11:21:41;13.50;;;7.88;;
30173;SDS011;16985;50.814;8.530;2023-04-06T11:24:18;18.02;;;7.80;;
30173;SDS011;16985;50.814;8.530;2023-04-06T11:26:49;15.18;;;7.80;;
30173;SDS011;16985;50.814;8.530;2023-04-06T11:29:26;13.57;;;7.97;;
30173;SDS011;16985;50.814;8.530;2023-04-06T11:31:59;13.45;;;7.55;;
30173;SDS011;16985;50.814;8.530;2023-04-06T11:34:27;16.33;;;8.30;;
30173;SDS011;16985;50.814;8.530;2023-04-06T11:36:56;13.10;;;7.68;;
30173;SDS011;16985;50.814;8.530;2023-04-06T11:39:26;16.88;;;7.70;;
30173;SDS011;16985;50.814;8.530;2023-04-06T11:44:33;15.40;;;7.63;;
30173;SDS011;16985;50.814;8.530;2023-04-06T11:47:05;11.95;;;6.82;;
30173;SDS011;16985;50.814;8.530;2023-04-06T11:49:33;10.93;;;7.53;;
30173;SDS011;16985;50.814;8.530;2023-04-06T11:52:13;11.65;;;6.38;;
30173;SDS011;16985;50.814;8.530;2023-04-06T11:54:49;12.15;;;7.45;;
30173;SDS011;16985;50.814;8.530;2023-04-06T11:57:17;11.38;;;7.05;;
30173;SDS011;16985;50.814;8.530;2023-04-06T11:59:45;12.27;;;7.35;;
30173;SDS011;16985;50.814;8.530;2023-04-06T12:02:14;13.18;;;7.05;;
30173;SDS011;16985;50.814;8.530;2023-04-06T12:04:40;11.50;;;6.82;;
30173;SDS011;16985;50.814;8.530;2023-04-06T12:07:06;9.93;;;5.93;;
30173;SDS011;16985;50.814;8.530;2023-04-06T12:09:32;10.38;;;6.50;;
30173;SDS011;16985;50.814;8.530;2023-04-06T12:12:01;12.98;;;7.47;;
30173;SDS011;16985;50.814;8.530;2023-04-06T12:14:27;18.23;;;7.28;;
30173;SDS011;16985;50.814;8.530;2023-04-06T12:16:53;11.43;;;6.85;;
30173;SDS011;16985;50.814;8.530;2023-04-06T12:19:19;12.00;;;6.72;;
30173;SDS011;16985;50.814;8.530;2023-04-06T12:21:46;16.23;;;6.65;;
30173;SDS011;16985;50.814;8.530;2023-04-06T12:24:11;12.15;;;6.80;;
30173;SDS011;16985;50.814;8.530;2023-04-06T12:26:37;14.00;;;6.65;;
30173;SDS011;16985;50.814;8.530;2023-04-06T12:29:03;11.35;;;7.10;;
30173;SDS011;16985;50.814;8.530;2023-04-06T12:31:32;13.32;;;7.25;;
30173;SDS011;16985;50.814;8.530;2023-04-06T12:34:00;11.85;;;6.13;;
30173;SDS011;16985;50.814;8.530;2023-04-06T12:36:28;8.23;;;5.23;;
30173;SDS011;16985;50.814;8.530;2023-04-06T12:38:54;11.80;;;6.63;;
30173;SDS011;16985;50.814;8.530;2023-04-06T12:41:20;6.90;;;4.90;;
30173;SDS011;16985;50.814;8.530;2023-04-06T12:43:46;10.68;;;6.18;;
30173;SDS011;16985;50.814;8.530;2023-04-06T12:46:13;12.32;;;6.55;;
30173;SDS011;16985;50.814;8.530;2023-04-06T12:48:39;12.98;;;6.78;;
30173;SDS011;16985;50.814;8.530;2023-04-06T12:51:06;8.68;;;5.28;;
30173;SDS011;16985;50.814;8.530;2023-04-06T12:53:32;9.10;;;5.50;;
30173;SDS011;16985;50.814;8.530;2023-04-06T12:56:00;10.13;;;5.97;;
30173;SDS011;16985;50.814;8.530;2023-04-06T12:58:27;11.83;;;6.07;;
30173;SDS011;16985;50.814;8.530;2023-04-06T13:00:57;9.02;;;5.53;;
30173;SDS011;16985;50.814;8.530;2023-04-06T13:03:27;10.82;;;6.15;;
30173;SDS011;16985;50.814;8.530;2023-04-06T13:05:54;12.50;;;6.53;;
30173;SDS011;16985;50.814;8.530;2023-04-06T13:08:20;9.27;;;5.10;;
30173;SDS011;16985;50.814;8.530;2023-04-06T13:10:46;9.93;;;5.75;;
30173;SDS011;16985;50.814;8.530;2023-04-06T13:13:13;12.27;;;5.93;;
30173;SDS011;16985;50.814;8.530;2023-04-06T13:15:40;9.02;;;5.70;;
30173;SDS011;16985;50.814;8.530;2023-04-06T13:18:07;9.77;;;5.63;;
30173;SDS011;16985;50.814;8.530;2023-04-06T13:20:33;11.60;;;6.43;;
30173;SDS011;16985;50.814;8.530;2023-04-06T13:23:00;10.10;;;5.75;;
30173;SDS011;16985;50.814;8.530;2023-04-06T13:25:25;9.75;;;6.30;;
30173;SDS011;16985;50.814;8.530;2023-04-06T13:27:51;8.57;;;5.20;;
30173;SDS011;16985;50.814;8.530;2023-04-06T13:30:17;10.50;;;5.68;;
30173;SDS011;16985;50.814;8.530;2023-04-06T13:32:43;10.95;;;6.47;;
30173;SDS011;16985;50.814;8.530;2023-04-06T13:35:09;7.63;;;5.22;;
30173;SDS011;16985;50.814;8.530;2023-04-06T13:37:35;8.07;;;5.00;;
30173;SDS011;16985;50.814;8.530;2023-04-06T13:40:04;8.10;;;5.40;;
30173;SDS011;16985;50.814;8.530;2023-04-06T13:42:30;9.73;;;5.80;;
30173;SDS011;16985;50.814;8.530;2023-04-06T13:44:57;8.63;;;5.03;;
30173;SDS011;16985;50.814;8.530;2023-04-06T13:47:24;15.75;;;7.72;;
30173;SDS011;16985;50.814;8.530;2023-04-06T13:49:50;19.40;;;8.20;;
30173;SDS011;16985;50.814;8.530;2023-04-06T13:52:17;18.05;;;8.25;;
30173;SDS011;16985;50.814;8.530;2023-04-06T13:54:44;20.85;;;9.27;;
30173;SDS011;16985;50.814;8.530;2023-04-06T13:57:10;17.38;;;8.65;;
30173;SDS011;16985;50.814;8.530;2023-04-06T13:59:37;31.13;;;11.60;;
30173;SDS011;16985;50.814;8.530;2023-04-06T14:02:04;17.40;;;9.00;;
30173;SDS011;16985;50.814;8.530;2023-04-06T14:04:34;12.77;;;6.45;;
30173;SDS011;16985;50.814;8.530;2023-04-06T14:07:01;12.85;;;6.72;;
30173;SDS011;16985;50.814;8.530;2023-04-06T14:09:28;9.95;;;6.38;;
30173;SDS011;16985;50.814;8.530;2023-04-06T14:11:55;9.70;;;5.80;;
30173;SDS011;16985;50.814;8.530;2023-04-06T14:14:21;8.20;;;5.10;;
30173;SDS011;16985;50.814;8.530;2023-04-06T14:16:48;9.48;;;5.68;;
30173;SDS011;16985;50.814;8.530;2023-04-06T14:19:15;13.20;;;6.25;;
30173;SDS011;16985;50.814;8.530;2023-04-06T14:21:46;13.93;;;5.78;;
30173;SDS011;16985;50.814;8.530;2023-04-06T14:24:13;7.93;;;5.53;;
30173;SDS011;16985;50.814;8.530;2023-04-06T14:26:41;10.10;;;6.03;;
30173;SDS011;16985;50.814;8.530;2023-04-06T14:29:08;9.57;;;6.53;;
30173;SDS011;16985;50.814;8.530;2023-04-06T14:31:34;8.85;;;5.97;;
30173;SDS011;16985;50.814;8.530;2023-04-06T14:34:01;6.95;;;4.80;;
30173;SDS011;16985;50.814;8.530;2023-04-06T14:36:28;8.25;;;5.00;;
30173;SDS011;16985;50.814;8.530;2023-04-06T14:39:04;13.70;;;5.75;;
30173;SDS011;16985;50.814;8.530;2023-04-06T14:41:30;6.40;;;5.03;;
30173;SDS011;16985;50.814;8.530;2023-04-06T14:43:58;9.02;;;5.45;;
30173;SDS011;16985;50.814;8.530;2023-04-06T14:46:24;8.27;;;5.63;;
30173;SDS011;16985;50.814;8.530;2023-04-06T14:48:50;8.98;;;5.13;;
30173;SDS011;16985;50.814;8.530;2023-04-06T14:51:16;8.95;;;5.72;;
30173;SDS011;16985;50.814;8.530;2023-04-06T14:53:42;8.18;;;4.80;;
30173;SDS011;16985;50.814;8.530;2023-04-06T14:56:08;7.68;;;4.85;;
30173;SDS011;16985;50.814;8.530;2023-04-06T14:58:34;11.82;;;5.20;;
30173;SDS011;16985;50.814;8.530;2023-04-06T15:01:00;9.10;;;5.78;;
30173;SDS011;16985;50.814;8.530;2023-04-06T15:03:27;8.57;;;5.53;;
30173;SDS011;16985;50.814;8.530;2023-04-06T15:05:54;10.15;;;6.40;;